sensor_id;sensor_type;location;lat;lon;timestamp;P1;durP1;ratioP1;P2;durP2;ratioP2
70929;SDS011;58588;48.102;19.682;2023-05-01T00:02:47;12.52;;;6.18;;
70929;SDS011;58588;48.102;19.682;2023-05-01T00:05:49;12.77;;;6.13;;
70929;SDS011;58588;48.102;19.682;2023-05-01T00:08:51;14.30;;;6.20;;
70929;SDS011;58588;48.102;19.682;2023-05-01T00:11:57;14.90;;;6.30;;
70929;SDS011;58588;48.102;19.682;2023-05-01T00:14:59;13.02;;;6.25;;
70929;SDS011;58588;48.102;19.682;2023-05-01T00:18:01;12.73;;;6.03;;
70929;SDS011;58588;48.102;19.682;2023-05-01T00:21:05;10.65;;;5.53;;
70929;SDS011;58588;48.102;19.682;2023-05-01T00:24:10;12.03;;;5.80;;
70929;SDS011;58588;48.102;19.682;2023-05-01T00:27:15;12.02;;;5.97;;
70929;SDS011;58588;48.102;19.682;2023-05-01T00:30:22;13.00;;;6.03;;
70929;SDS011;58588;48.102;19.682;2023-05-01T00:33:29;12.57;;;6.20;;
70929;SDS011;58588;48.102;19.682;2023-05-01T00:36:34;11.73;;;5.88;;
70929;SDS011;58588;48.102;19.682;2023-05-01T00:39:37;11.47;;;5.80;;
70929;SDS011;58588;48.102;19.682;2023-05-01T00:42:46;10.85;;;5.10;;
70929;SDS011;58588;48.102;19.682;2023-05-01T00:45:51;10.90;;;5.20;;
70929;SDS011;58588;48.102;19.682;2023-05-01T00:48:58;12.00;;;5.50;;
70929;SDS011;58588;48.102;19.682;2023-05-01T00:52:05;11.15;;;5.20;;
70929;SDS011;58588;48.102;19.682;2023-05-01T00:55:11;8.97;;;4.73;;
70929;SDS011;58588;48.102;19.682;2023-05-01T00:58:20;10.93;;;5.07;;
70929;SDS011;58588;48.102;19.682;2023-05-01T01:01:25;15.30;;;6.85;;
70929;SDS011;58588;48.102;19.682;2023-05-01T01:04:27;13.98;;;5.80;;
70929;SDS011;58588;48.102;19.682;2023-05-01T01:07:34;10.85;;;5.15;;
70929;SDS011;58588;48.102;19.682;2023-05-01T01:10:42;10.57;;;4.73;;
70929;SDS011;58588;48.102;19.682;2023-05-01T01:13:54;11.07;;;5.28;;
70929;SDS011;58588;48.102;19.682;2023-05-01T01:17:01;12.02;;;5.25;;
70929;SDS011;58588;48.102;19.682;2023-05-01T01:20:13;10.68;;;4.97;;
70929;SDS011;58588;48.102;19.682;2023-05-01T01:23:30;11.40;;;5.55;;
70929;SDS011;58588;48.102;19.682;2023-05-01T01:26:54;11.13;;;5.10;;
70929;SDS011;58588;48.102;19.682;2023-05-01T01:30:34;11.25;;;5.82;;
70929;SDS011;58588;48.102;19.682;2023-05-01T01:34:02;12.88;;;5.80;;
70929;SDS011;58588;48.102;19.682;2023-05-01T01:37:10;12.43;;;5.82;;
70929;SDS011;58588;48.102;19.682;2023-05-01T01:40:17;11.65;;;5.40;;
70929;SDS011;58588;48.102;19.682;2023-05-01T01:43:23;10.60;;;5.13;;
70929;SDS011;58588;48.102;19.682;2023-05-01T01:46:27;10.77;;;5.47;;
70929;SDS011;58588;48.102;19.682;2023-05-01T01:49:32;10.23;;;5.45;;
70929;SDS011;58588;48.102;19.682;2023-05-01T01:52:37;13.32;;;5.78;;
70929;SDS011;58588;48.102;19.682;2023-05-01T01:55:42;14.07;;;6.13;;
70929;SDS011;58588;48.102;19.682;2023-05-01T01:58:46;11.57;;;5.50;;
70929;SDS011;58588;48.102;19.682;2023-05-01T02:01:50;12.55;;;5.30;;
70929;SDS011;58588;48.102;19.682;2023-05-01T02:04:58;14.25;;;5.82;;
70929;SDS011;58588;48.102;19.682;2023-05-01T02:08:01;13.13;;;6.05;;
70929;SDS011;58588;48.102;19.682;2023-05-01T02:11:04;12.52;;;5.88;;
70929;SDS011;58588;48.102;19.682;2023-05-01T02:14:08;11.93;;;5.80;;
70929;SDS011;58588;48.102;19.682;2023-05-01T02:17:12;11.50;;;6.15;;
70929;SDS011;58588;48.102;19.682;2023-05-01T02:20:21;12.27;;;6.07;;
70929;SDS011;58588;48.102;19.682;2023-05-01T02:23:24;10.68;;;5.28;;
70929;SDS011;58588;48.102;19.682;2023-05-01T02:26:27;13.75;;;6.90;;
70929;SDS011;58588;48.102;19.682;2023-05-01T02:29:30;12.53;;;5.60;;
70929;SDS011;58588;48.102;19.682;2023-05-01T02:32:32;10.75;;;5.47;;
70929;SDS011;58588;48.102;19.682;2023-05-01T02:35:39;12.18;;;5.53;;
70929;SDS011;58588;48.102;19.682;2023-05-01T02:38:43;10.82;;;5.47;;
70929;SDS011;58588;48.102;19.682;2023-05-01T02:41:46;9.65;;;4.40;;
70929;SDS011;58588;48.102;19.682;2023-05-01T02:44:50;11.17;;;5.10;;
70929;SDS011;58588;48.102;19.682;2023-05-01T02:47:57;10.65;;;4.90;;
70929;SDS011;58588;48.102;19.682;2023-05-01T02:51:03;10.52;;;4.47;;
70929;SDS011;58588;48.102;19.682;2023-05-01T02:54:06;9.93;;;4.32;;
70929;SDS011;58588;48.102;19.682;2023-05-01T02:57:08;10.48;;;4.75;;
70929;SDS011;58588;48.102;19.682;2023-05-01T03:00:11;13.27;;;5.00;;
70929;SDS011;58588;48.102;19.682;2023-05-01T03:03:14;10.30;;;4.57;;
70929;SDS011;58588;48.102;19.682;2023-05-01T03:06:17;11.88;;;5.22;;
70929;SDS011;58588;48.102;19.682;2023-05-01T03:09:19;11.68;;;4.80;;
70929;SDS011;58588;48.102;19.682;2023-05-01T03:12:22;10.30;;;5.13;;
70929;SDS011;58588;48.102;19.682;2023-05-01T03:15:24;11.37;;;5.47;;
70929;SDS011;58588;48.102;19.682;2023-05-01T03:18:26;9.68;;;4.63;;
70929;SDS011;58588;48.102;19.682;2023-05-01T03:21:29;11.30;;;4.55;;
70929;SDS011;58588;48.102;19.682;2023-05-01T03:24:33;11.90;;;4.95;;
70929;SDS011;58588;48.102;19.682;2023-05-01T03:27:35;12.63;;;5.07;;
70929;SDS011;58588;48.102;19.682;2023-05-01T03:30:37;12.23;;;5.13;;
70929;SDS011;58588;48.102;19.682;2023-05-01T03:33:39;12.48;;;5.35;;
70929;SDS011;58588;48.102;19.682;2023-05-01T03:36:43;11.45;;;5.07;;
70929;SDS011;58588;48.102;19.682;2023-05-01T03:39:45;14.00;;;6.32;;
70929;SDS011;58588;48.102;19.682;2023-05-01T03:42:47;12.70;;;5.07;;
70929;SDS011;58588;48.102;19.682;2023-05-01T03:45:49;12.03;;;4.70;;
70929;SDS011;58588;48.102;19.682;2023-05-01T03:48:51;9.27;;;3.97;;
70929;SDS011;58588;48.102;19.682;2023-05-01T03:51:54;8.85;;;4.35;;
70929;SDS011;58588;48.102;19.682;2023-05-01T03:54:57;11.45;;;4.60;;
70929;SDS011;58588;48.102;19.682;2023-05-01T03:57:59;12.70;;;5.43;;
70929;SDS011;58588;48.102;19.682;2023-05-01T04:01:01;11.83;;;4.97;;
70929;SDS011;58588;48.102;19.682;2023-05-01T04:04:03;9.40;;;4.53;;
70929;SDS011;58588;48.102;19.682;2023-05-01T04:07:08;12.25;;;5.10;;
70929;SDS011;58588;48.102;19.682;2023-05-01T04:10:10;12.27;;;5.57;;
70929;SDS011;58588;48.102;19.682;2023-05-01T04:13:12;10.55;;;4.82;;
70929;SDS011;58588;48.102;19.682;2023-05-01T04:16:14;12.73;;;5.03;;
70929;SDS011;58588;48.102;19.682;2023-05-01T04:19:17;11.13;;;5.43;;
70929;SDS011;58588;48.102;19.682;2023-05-01T04:22:21;11.00;;;4.78;;
70929;SDS011;58588;48.102;19.682;2023-05-01T04:25:23;12.02;;;5.53;;
70929;SDS011;58588;48.102;19.682;2023-05-01T04:28:25;12.45;;;5.40;;
70929;SDS011;58588;48.102;19.682;2023-05-01T04:31:30;9.53;;;4.70;;
70929;SDS011;58588;48.102;19.682;2023-05-01T04:34:32;10.88;;;4.90;;
70929;SDS011;58588;48.102;19.682;2023-05-01T04:37:35;10.98;;;5.13;;
70929;SDS011;58588;48.102;19.682;2023-05-01T04:40:37;11.68;;;5.55;;
70929;SDS011;58588;48.102;19.682;2023-05-01T04:43:39;11.10;;;4.88;;
70929;SDS011;58588;48.102;19.682;2023-05-01T04:46:41;19.43;;;11.43;;
70929;SDS011;58588;48.102;19.682;2023-05-01T04:49:43;14.45;;;8.25;;
70929;SDS011;58588;48.102;19.682;2023-05-01T04:52:47;18.77;;;12.50;;
70929;SDS011;58588;48.102;19.682;2023-05-01T04:55:49;13.57;;;8.50;;
70929;SDS011;58588;48.102;19.682;2023-05-01T04:58:51;15.20;;;7.65;;
70929;SDS011;58588;48.102;19.682;2023-05-01T05:01:53;14.30;;;8.07;;
70929;SDS011;58588;48.102;19.682;2023-05-01T05:04:56;15.15;;;6.70;;
70929;SDS011;58588;48.102;19.682;2023-05-01T05:07:59;13.15;;;6.05;;
70929;SDS011;58588;48.102;19.682;2023-05-01T05:11:02;14.23;;;6.95;;
70929;SDS011;58588;48.102;19.682;2023-05-01T05:14:04;12.15;;;6.30;;
70929;SDS011;58588;48.102;19.682;2023-05-01T05:17:06;16.77;;;8.00;;
70929;SDS011;58588;48.102;19.682;2023-05-01T05:20:08;13.60;;;6.90;;
70929;SDS011;58588;48.102;19.682;2023-05-01T05:23:12;13.52;;;6.45;;
70929;SDS011;58588;48.102;19.682;2023-05-01T05:26:14;14.00;;;6.35;;
70929;SDS011;58588;48.102;19.682;2023-05-01T05:29:16;14.18;;;6.30;;
70929;SDS011;58588;48.102;19.682;2023-05-01T05:32:18;13.77;;;7.17;;
70929;SDS011;58588;48.102;19.682;2023-05-01T05:35:20;15.95;;;10.68;;
70929;SDS011;58588;48.102;19.682;2023-05-01T05:38:24;13.35;;;7.20;;
70929;SDS011;58588;48.102;19.682;2023-05-01T05:41:26;15.50;;;6.43;;
70929;SDS011;58588;48.102;19.682;2023-05-01T05:44:28;11.10;;;5.22;;
70929;SDS011;58588;48.102;19.682;2023-05-01T05:47:32;11.80;;;5.97;;
70929;SDS011;58588;48.102;19.682;2023-05-01T05:50:34;11.77;;;5.45;;
70929;SDS011;58588;48.102;19.682;2023-05-01T05:53:38;11.90;;;5.97;;
70929;SDS011;58588;48.102;19.682;2023-05-01T05:56:40;12.10;;;5.47;;
70929;SDS011;58588;48.102;19.682;2023-05-01T05:59:42;9.98;;;4.60;;
70929;SDS011;58588;48.102;19.682;2023-05-01T06:02:44;8.87;;;4.40;;
70929;SDS011;58588;48.102;19.682;2023-05-01T06:05:47;7.90;;;3.63;;
70929;SDS011;58588;48.102;19.682;2023-05-01T06:08:50;9.50;;;2.70;;
70929;SDS011;58588;48.102;19.682;2023-05-01T06:11:52;9.20;;;2.55;;
70929;SDS011;58588;48.102;19.682;2023-05-01T06:14:54;10.88;;;1.80;;
70929;SDS011;58588;48.102;19.682;2023-05-01T06:17:59;5.87;;;2.00;;
70929;SDS011;58588;48.102;19.682;2023-05-01T06:21:02;6.30;;;1.90;;
70929;SDS011;58588;48.102;19.682;2023-05-01T06:24:06;6.75;;;1.50;;
70929;SDS011;58588;48.102;19.682;2023-05-01T06:27:08;8.25;;;2.15;;
70929;SDS011;58588;48.102;19.682;2023-05-01T06:30:10;24.92;;;4.82;;
70929;SDS011;58588;48.102;19.682;2023-05-01T06:33:13;30.07;;;5.43;;
70929;SDS011;58588;48.102;19.682;2023-05-01T06:36:15;11.35;;;1.83;;
70929;SDS011;58588;48.102;19.682;2023-05-01T06:39:24;6.28;;;1.50;;
70929;SDS011;58588;48.102;19.682;2023-05-01T06:42:31;6.28;;;1.48;;
70929;SDS011;58588;48.102;19.682;2023-05-01T06:45:33;7.50;;;1.50;;
70929;SDS011;58588;48.102;19.682;2023-05-01T06:48:38;6.23;;;1.63;;
70929;SDS011;58588;48.102;19.682;2023-05-01T06:51:40;7.95;;;1.45;;
70929;SDS011;58588;48.102;19.682;2023-05-01T06:54:44;6.78;;;1.60;;
70929;SDS011;58588;48.102;19.682;2023-05-01T06:57:46;9.45;;;1.70;;
70929;SDS011;58588;48.102;19.682;2023-05-01T07:00:48;8.80;;;1.70;;
70929;SDS011;58588;48.102;19.682;2023-05-01T07:03:50;5.23;;;1.37;;
70929;SDS011;58588;48.102;19.682;2023-05-01T07:06:55;7.30;;;2.13;;
70929;SDS011;58588;48.102;19.682;2023-05-01T07:09:58;8.00;;;1.63;;
70929;SDS011;58588;48.102;19.682;2023-05-01T07:13:00;6.93;;;1.80;;
70929;SDS011;58588;48.102;19.682;2023-05-01T07:16:03;5.60;;;1.60;;
70929;SDS011;58588;48.102;19.682;2023-05-01T07:19:06;8.50;;;2.10;;
70929;SDS011;58588;48.102;19.682;2023-05-01T07:22:08;5.75;;;1.40;;
70929;SDS011;58588;48.102;19.682;2023-05-01T07:25:13;6.05;;;1.50;;
70929;SDS011;58588;48.102;19.682;2023-05-01T07:28:15;6.55;;;1.63;;
70929;SDS011;58588;48.102;19.682;2023-05-01T07:31:19;6.20;;;1.70;;
70929;SDS011;58588;48.102;19.682;2023-05-01T07:34:21;6.73;;;1.93;;
70929;SDS011;58588;48.102;19.682;2023-05-01T07:37:26;6.85;;;1.48;;
70929;SDS011;58588;48.102;19.682;2023-05-01T07:40:31;6.32;;;1.70;;
70929;SDS011;58588;48.102;19.682;2023-05-01T07:43:33;6.35;;;1.60;;
70929;SDS011;58588;48.102;19.682;2023-05-01T07:46:35;11.07;;;3.20;;
70929;SDS011;58588;48.102;19.682;2023-05-01T07:49:37;5.93;;;1.77;;
70929;SDS011;58588;48.102;19.682;2023-05-01T07:52:39;6.78;;;1.38;;
70929;SDS011;58588;48.102;19.682;2023-05-01T07:55:44;6.28;;;1.77;;
70929;SDS011;58588;48.102;19.682;2023-05-01T07:58:50;5.55;;;1.40;;
70929;SDS011;58588;48.102;19.682;2023-05-01T08:01:52;6.72;;;1.55;;
70929;SDS011;58588;48.102;19.682;2023-05-01T08:04:54;5.60;;;1.80;;
70929;SDS011;58588;48.102;19.682;2023-05-01T08:07:57;11.20;;;2.97;;
70929;SDS011;58588;48.102;19.682;2023-05-01T08:11:00;8.02;;;2.20;;
70929;SDS011;58588;48.102;19.682;2023-05-01T08:14:02;7.25;;;2.03;;
70929;SDS011;58588;48.102;19.682;2023-05-01T08:17:04;7.28;;;1.83;;
70929;SDS011;58588;48.102;19.682;2023-05-01T08:20:07;6.67;;;2.20;;
70929;SDS011;58588;48.102;19.682;2023-05-01T08:23:09;7.78;;;1.95;;
70929;SDS011;58588;48.102;19.682;2023-05-01T08:26:13;6.35;;;1.80;;
70929;SDS011;58588;48.102;19.682;2023-05-01T08:29:15;6.72;;;1.88;;
70929;SDS011;58588;48.102;19.682;2023-05-01T08:32:17;8.27;;;2.47;;
70929;SDS011;58588;48.102;19.682;2023-05-01T08:35:19;8.00;;;1.90;;
70929;SDS011;58588;48.102;19.682;2023-05-01T08:38:21;8.93;;;3.90;;
70929;SDS011;58588;48.102;19.682;2023-05-01T08:41:26;6.15;;;2.17;;
70929;SDS011;58588;48.102;19.682;2023-05-01T08:44:28;6.60;;;2.70;;
70929;SDS011;58588;48.102;19.682;2023-05-01T08:47:31;6.75;;;1.80;;
70929;SDS011;58588;48.102;19.682;2023-05-01T08:50:37;6.60;;;1.70;;
70929;SDS011;58588;48.102;19.682;2023-05-01T08:53:41;7.70;;;1.60;;
70929;SDS011;58588;48.102;19.682;2023-05-01T08:56:46;8.38;;;1.60;;
70929;SDS011;58588;48.102;19.682;2023-05-01T08:59:50;7.30;;;1.60;;
70929;SDS011;58588;48.102;19.682;2023-05-01T09:02:57;5.60;;;1.50;;
70929;SDS011;58588;48.102;19.682;2023-05-01T09:06:02;5.73;;;1.50;;
70929;SDS011;58588;48.102;19.682;2023-05-01T09:09:04;8.38;;;2.00;;
70929;SDS011;58588;48.102;19.682;2023-05-01T09:12:10;7.10;;;1.90;;
70929;SDS011;58588;48.102;19.682;2023-05-01T09:15:27;6.63;;;1.90;;
70929;SDS011;58588;48.102;19.682;2023-05-01T09:18:30;6.68;;;1.60;;
70929;SDS011;58588;48.102;19.682;2023-05-01T09:21:32;5.87;;;1.43;;
70929;SDS011;58588;48.102;19.682;2023-05-01T09:24:38;9.23;;;1.95;;
70929;SDS011;58588;48.102;19.682;2023-05-01T09:27:41;6.40;;;1.60;;
70929;SDS011;58588;48.102;19.682;2023-05-01T09:30:45;6.50;;;1.70;;
70929;SDS011;58588;48.102;19.682;2023-05-01T09:33:50;7.97;;;1.70;;
70929;SDS011;58588;48.102;19.682;2023-05-01T09:36:54;7.00;;;1.90;;
70929;SDS011;58588;48.102;19.682;2023-05-01T09:40:03;6.10;;;1.80;;
70929;SDS011;58588;48.102;19.682;2023-05-01T09:43:08;6.20;;;1.60;;
70929;SDS011;58588;48.102;19.682;2023-05-01T09:46:10;6.13;;;1.40;;
70929;SDS011;58588;48.102;19.682;2023-05-01T09:49:12;7.72;;;1.67;;
70929;SDS011;58588;48.102;19.682;2023-05-01T09:52:16;5.27;;;1.60;;
70929;SDS011;58588;48.102;19.682;2023-05-01T09:55:18;5.88;;;1.77;;
70929;SDS011;58588;48.102;19.682;2023-05-01T09:58:26;8.93;;;2.03;;
70929;SDS011;58588;48.102;19.682;2023-05-01T10:01:38;8.13;;;1.50;;
70929;SDS011;58588;48.102;19.682;2023-05-01T10:04:40;5.65;;;1.58;;
70929;SDS011;58588;48.102;19.682;2023-05-01T10:07:54;5.60;;;1.90;;
70929;SDS011;58588;48.102;19.682;2023-05-01T10:11:00;4.78;;;1.60;;
70929;SDS011;58588;48.102;19.682;2023-05-01T10:14:08;5.07;;;1.55;;
70929;SDS011;58588;48.102;19.682;2023-05-01T10:17:15;5.18;;;1.60;;
70929;SDS011;58588;48.102;19.682;2023-05-01T10:20:20;6.32;;;1.65;;
70929;SDS011;58588;48.102;19.682;2023-05-01T10:23:23;8.13;;;1.53;;
70929;SDS011;58588;48.102;19.682;2023-05-01T10:26:25;5.25;;;1.80;;
70929;SDS011;58588;48.102;19.682;2023-05-01T10:29:29;4.97;;;1.67;;
70929;SDS011;58588;48.102;19.682;2023-05-01T10:32:32;6.88;;;1.70;;
70929;SDS011;58588;48.102;19.682;2023-05-01T10:35:36;5.70;;;1.60;;
70929;SDS011;58588;48.102;19.682;2023-05-01T10:38:42;6.47;;;1.40;;
70929;SDS011;58588;48.102;19.682;2023-05-01T10:42:00;5.57;;;1.75;;
70929;SDS011;58588;48.102;19.682;2023-05-01T10:51:58;6.30;;;1.60;;
70929;SDS011;58588;48.102;19.682;2023-05-01T11:01:59;6.13;;;1.80;;
70929;SDS011;58588;48.102;19.682;2023-05-01T11:05:29;4.90;;;1.55;;
70929;SDS011;58588;48.102;19.682;2023-05-01T11:12:48;6.43;;;1.60;;
70929;SDS011;58588;48.102;19.682;2023-05-01T11:15:52;8.27;;;1.55;;
70929;SDS011;58588;48.102;19.682;2023-05-01T11:18:55;6.30;;;1.70;;
70929;SDS011;58588;48.102;19.682;2023-05-01T11:21:57;5.60;;;1.60;;
70929;SDS011;58588;48.102;19.682;2023-05-01T11:24:59;5.07;;;1.42;;
70929;SDS011;58588;48.102;19.682;2023-05-01T11:28:03;6.77;;;1.97;;
70929;SDS011;58588;48.102;19.682;2023-05-01T11:31:05;6.05;;;1.80;;
70929;SDS011;58588;48.102;19.682;2023-05-01T11:34:09;6.30;;;1.77;;
70929;SDS011;58588;48.102;19.682;2023-05-01T11:37:12;23.35;;;6.75;;
70929;SDS011;58588;48.102;19.682;2023-05-01T11:40:17;7.10;;;2.30;;
70929;SDS011;58588;48.102;19.682;2023-05-01T11:43:21;7.80;;;3.17;;
70929;SDS011;58588;48.102;19.682;2023-05-01T11:46:24;5.18;;;1.65;;
70929;SDS011;58588;48.102;19.682;2023-05-01T11:49:28;6.20;;;1.80;;
70929;SDS011;58588;48.102;19.682;2023-05-01T11:52:39;4.72;;;1.35;;
70929;SDS011;58588;48.102;19.682;2023-05-01T11:55:42;7.57;;;2.42;;
70929;SDS011;58588;48.102;19.682;2023-05-01T11:58:45;5.57;;;1.57;;
70929;SDS011;58588;48.102;19.682;2023-05-01T12:01:48;6.40;;;1.55;;
70929;SDS011;58588;48.102;19.682;2023-05-01T12:04:51;5.30;;;1.40;;
70929;SDS011;58588;48.102;19.682;2023-05-01T12:08:09;6.55;;;1.50;;
70929;SDS011;58588;48.102;19.682;2023-05-01T12:11:13;5.07;;;1.40;;
70929;SDS011;58588;48.102;19.682;2023-05-01T12:14:15;5.23;;;1.80;;
70929;SDS011;58588;48.102;19.682;2023-05-01T12:17:18;6.00;;;1.60;;
70929;SDS011;58588;48.102;19.682;2023-05-01T12:20:34;5.75;;;1.50;;
70929;SDS011;58588;48.102;19.682;2023-05-01T12:23:39;5.57;;;1.75;;
70929;SDS011;58588;48.102;19.682;2023-05-01T12:26:41;5.65;;;1.40;;
70929;SDS011;58588;48.102;19.682;2023-05-01T12:29:43;4.87;;;1.30;;
70929;SDS011;58588;48.102;19.682;2023-05-01T12:32:47;4.85;;;1.30;;
70929;SDS011;58588;48.102;19.682;2023-05-01T12:35:51;5.65;;;1.42;;
70929;SDS011;58588;48.102;19.682;2023-05-01T12:38:53;5.80;;;1.30;;
70929;SDS011;58588;48.102;19.682;2023-05-01T12:41:57;5.55;;;1.60;;
70929;SDS011;58588;48.102;19.682;2023-05-01T12:45:00;4.77;;;1.50;;
70929;SDS011;58588;48.102;19.682;2023-05-01T12:48:02;5.40;;;1.58;;
70929;SDS011;58588;48.102;19.682;2023-05-01T12:51:18;4.47;;;1.20;;
70929;SDS011;58588;48.102;19.682;2023-05-01T12:54:20;5.03;;;1.35;;
70929;SDS011;58588;48.102;19.682;2023-05-01T12:57:24;5.88;;;1.50;;
70929;SDS011;58588;48.102;19.682;2023-05-01T13:00:26;5.23;;;1.50;;
70929;SDS011;58588;48.102;19.682;2023-05-01T13:03:28;5.25;;;1.50;;
70929;SDS011;58588;48.102;19.682;2023-05-01T13:06:32;4.55;;;1.50;;
70929;SDS011;58588;48.102;19.682;2023-05-01T13:09:34;6.10;;;1.42;;
70929;SDS011;58588;48.102;19.682;2023-05-01T13:12:42;4.60;;;1.40;;
70929;SDS011;58588;48.102;19.682;2023-05-01T13:15:45;5.20;;;1.27;;
70929;SDS011;58588;48.102;19.682;2023-05-01T13:18:47;4.45;;;1.23;;
70929;SDS011;58588;48.102;19.682;2023-05-01T13:21:53;5.93;;;1.30;;
70929;SDS011;58588;48.102;19.682;2023-05-01T13:24:56;5.20;;;1.27;;
70929;SDS011;58588;48.102;19.682;2023-05-01T13:27:58;4.50;;;1.30;;
70929;SDS011;58588;48.102;19.682;2023-05-01T13:31:00;4.93;;;1.30;;
70929;SDS011;58588;48.102;19.682;2023-05-01T13:34:02;5.40;;;1.30;;
70929;SDS011;58588;48.102;19.682;2023-05-01T13:37:07;5.20;;;1.17;;
70929;SDS011;58588;48.102;19.682;2023-05-01T13:40:12;5.25;;;1.40;;
70929;SDS011;58588;48.102;19.682;2023-05-01T13:43:15;4.70;;;1.30;;
70929;SDS011;58588;48.102;19.682;2023-05-01T13:46:18;7.87;;;1.17;;
70929;SDS011;58588;48.102;19.682;2023-05-01T13:49:21;4.95;;;1.30;;
70929;SDS011;58588;48.102;19.682;2023-05-01T13:52:26;4.65;;;1.10;;
70929;SDS011;58588;48.102;19.682;2023-05-01T13:55:28;5.38;;;1.30;;
70929;SDS011;58588;48.102;19.682;2023-05-01T13:58:30;5.55;;;1.38;;
70929;SDS011;58588;48.102;19.682;2023-05-01T14:01:35;4.23;;;1.20;;
70929;SDS011;58588;48.102;19.682;2023-05-01T14:04:41;4.40;;;1.10;;
70929;SDS011;58588;48.102;19.682;2023-05-01T14:07:47;4.50;;;1.10;;
70929;SDS011;58588;48.102;19.682;2023-05-01T14:10:53;4.53;;;1.10;;
70929;SDS011;58588;48.102;19.682;2023-05-01T14:13:55;4.95;;;1.38;;
70929;SDS011;58588;48.102;19.682;2023-05-01T14:17:00;4.00;;;1.10;;
70929;SDS011;58588;48.102;19.682;2023-05-01T14:20:02;5.68;;;1.20;;
70929;SDS011;58588;48.102;19.682;2023-05-01T14:23:06;6.90;;;1.25;;
70929;SDS011;58588;48.102;19.682;2023-05-01T14:26:09;6.20;;;1.23;;
70929;SDS011;58588;48.102;19.682;2023-05-01T14:29:13;4.57;;;1.05;;
70929;SDS011;58588;48.102;19.682;2023-05-01T14:32:21;6.97;;;1.30;;
70929;SDS011;58588;48.102;19.682;2023-05-01T14:35:23;5.47;;;1.20;;
70929;SDS011;58588;48.102;19.682;2023-05-01T14:38:27;5.65;;;1.40;;
70929;SDS011;58588;48.102;19.682;2023-05-01T14:41:38;6.78;;;1.25;;
70929;SDS011;58588;48.102;19.682;2023-05-01T14:44:42;4.82;;;1.20;;
70929;SDS011;58588;48.102;19.682;2023-05-01T14:47:44;4.90;;;1.20;;
70929;SDS011;58588;48.102;19.682;2023-05-01T14:50:47;5.25;;;1.23;;
70929;SDS011;58588;48.102;19.682;2023-05-01T14:53:51;4.13;;;1.20;;
70929;SDS011;58588;48.102;19.682;2023-05-01T14:56:53;4.53;;;1.17;;
70929;SDS011;58588;48.102;19.682;2023-05-01T14:59:55;4.53;;;1.10;;
70929;SDS011;58588;48.102;19.682;2023-05-01T15:02:57;4.33;;;1.10;;
70929;SDS011;58588;48.102;19.682;2023-05-01T15:06:00;4.07;;;1.10;;
70929;SDS011;58588;48.102;19.682;2023-05-01T15:09:04;5.82;;;1.30;;
70929;SDS011;58588;48.102;19.682;2023-05-01T15:12:06;4.68;;;1.20;;
70929;SDS011;58588;48.102;19.682;2023-05-01T15:15:09;4.75;;;1.10;;
70929;SDS011;58588;48.102;19.682;2023-05-01T15:18:11;5.40;;;1.20;;
70929;SDS011;58588;48.102;19.682;2023-05-01T15:21:13;4.38;;;1.33;;
70929;SDS011;58588;48.102;19.682;2023-05-01T15:24:17;6.60;;;1.50;;
70929;SDS011;58588;48.102;19.682;2023-05-01T15:27:19;4.47;;;1.40;;
70929;SDS011;58588;48.102;19.682;2023-05-01T15:30:21;4.13;;;1.30;;
70929;SDS011;58588;48.102;19.682;2023-05-01T15:33:24;4.73;;;1.67;;
70929;SDS011;58588;48.102;19.682;2023-05-01T15:36:26;4.90;;;1.70;;
70929;SDS011;58588;48.102;19.682;2023-05-01T15:39:29;4.60;;;1.50;;
70929;SDS011;58588;48.102;19.682;2023-05-01T15:42:32;4.53;;;1.55;;
70929;SDS011;58588;48.102;19.682;2023-05-01T15:45:34;4.25;;;1.35;;
70929;SDS011;58588;48.102;19.682;2023-05-01T15:48:41;4.70;;;1.40;;
70929;SDS011;58588;48.102;19.682;2023-05-01T15:51:43;5.53;;;1.55;;
70929;SDS011;58588;48.102;19.682;2023-05-01T15:54:47;5.65;;;1.40;;
70929;SDS011;58588;48.102;19.682;2023-05-01T15:57:49;5.90;;;1.50;;
70929;SDS011;58588;48.102;19.682;2023-05-01T16:00:51;4.88;;;1.50;;
70929;SDS011;58588;48.102;19.682;2023-05-01T16:03:53;4.90;;;1.50;;
70929;SDS011;58588;48.102;19.682;2023-05-01T16:06:55;8.85;;;2.00;;
70929;SDS011;58588;48.102;19.682;2023-05-01T16:09:58;6.28;;;2.60;;
70929;SDS011;58588;48.102;19.682;2023-05-01T16:13:00;5.80;;;1.90;;
70929;SDS011;58588;48.102;19.682;2023-05-01T16:16:03;5.45;;;1.90;;
70929;SDS011;58588;48.102;19.682;2023-05-01T16:19:08;6.87;;;1.60;;
70929;SDS011;58588;48.102;19.682;2023-05-01T16:22:13;7.15;;;1.67;;
70929;SDS011;58588;48.102;19.682;2023-05-01T16:25:17;7.22;;;1.77;;
70929;SDS011;58588;48.102;19.682;2023-05-01T16:28:19;10.25;;;5.13;;
70929;SDS011;58588;48.102;19.682;2023-05-01T16:31:21;12.45;;;6.30;;
70929;SDS011;58588;48.102;19.682;2023-05-01T16:34:24;12.60;;;5.77;;
70929;SDS011;58588;48.102;19.682;2023-05-01T16:37:27;16.45;;;7.97;;
70929;SDS011;58588;48.102;19.682;2023-05-01T16:40:30;24.38;;;11.70;;
70929;SDS011;58588;48.102;19.682;2023-05-01T16:43:32;11.00;;;4.72;;
70929;SDS011;58588;48.102;19.682;2023-05-01T16:46:35;7.47;;;3.15;;
70929;SDS011;58588;48.102;19.682;2023-05-01T16:49:37;8.07;;;2.90;;
70929;SDS011;58588;48.102;19.682;2023-05-01T16:52:41;10.10;;;4.68;;
70929;SDS011;58588;48.102;19.682;2023-05-01T16:55:44;8.18;;;3.60;;
70929;SDS011;58588;48.102;19.682;2023-05-01T16:58:46;9.98;;;2.20;;
70929;SDS011;58588;48.102;19.682;2023-05-01T17:01:48;7.30;;;2.13;;
70929;SDS011;58588;48.102;19.682;2023-05-01T17:04:51;10.10;;;3.97;;
70929;SDS011;58588;48.102;19.682;2023-05-01T17:07:53;7.85;;;4.20;;
70929;SDS011;58588;48.102;19.682;2023-05-01T17:10:56;8.20;;;3.75;;
70929;SDS011;58588;48.102;19.682;2023-05-01T17:13:58;8.65;;;3.63;;
70929;SDS011;58588;48.102;19.682;2023-05-01T17:17:00;13.77;;;5.68;;
70929;SDS011;58588;48.102;19.682;2023-05-01T17:20:03;14.23;;;6.17;;
70929;SDS011;58588;48.102;19.682;2023-05-01T17:23:05;12.27;;;5.10;;
70929;SDS011;58588;48.102;19.682;2023-05-01T17:26:10;12.43;;;3.78;;
70929;SDS011;58588;48.102;19.682;2023-05-01T17:29:14;11.65;;;4.22;;
70929;SDS011;58588;48.102;19.682;2023-05-01T17:32:16;12.45;;;3.55;;
70929;SDS011;58588;48.102;19.682;2023-05-01T17:35:19;7.77;;;2.03;;
70929;SDS011;58588;48.102;19.682;2023-05-01T17:38:21;6.05;;;1.45;;
70929;SDS011;58588;48.102;19.682;2023-05-01T17:41:24;5.50;;;1.40;;
70929;SDS011;58588;48.102;19.682;2023-05-01T17:44:27;7.65;;;2.00;;
70929;SDS011;58588;48.102;19.682;2023-05-01T17:47:29;5.97;;;1.88;;
70929;SDS011;58588;48.102;19.682;2023-05-01T17:50:31;8.70;;;3.30;;
70929;SDS011;58588;48.102;19.682;2023-05-01T17:53:33;11.93;;;5.50;;
70929;SDS011;58588;48.102;19.682;2023-05-01T17:56:36;19.52;;;6.03;;
70929;SDS011;58588;48.102;19.682;2023-05-01T17:59:38;13.63;;;6.28;;
70929;SDS011;58588;48.102;19.682;2023-05-01T18:02:40;16.60;;;5.75;;
70929;SDS011;58588;48.102;19.682;2023-05-01T18:05:43;18.53;;;8.27;;
70929;SDS011;58588;48.102;19.682;2023-05-01T18:08:45;15.75;;;6.60;;
70929;SDS011;58588;48.102;19.682;2023-05-01T18:11:50;11.48;;;4.00;;
70929;SDS011;58588;48.102;19.682;2023-05-01T18:14:53;12.70;;;5.47;;
70929;SDS011;58588;48.102;19.682;2023-05-01T18:17:58;14.38;;;6.70;;
70929;SDS011;58588;48.102;19.682;2023-05-01T18:21:00;17.87;;;6.53;;
70929;SDS011;58588;48.102;19.682;2023-05-01T18:24:02;12.82;;;5.85;;